sensor_id;sensor_type;location;lat;lon;timestamp;pressure;altitude;pressure_sealevel;temperature;humidity
80103;BME280;69865;47.648;19.030;2024-03-25T00:00:15;99480.78;;;3.03;100.00
80103;BME280;69865;47.648;19.030;2024-03-25T00:00:46;99468.84;;;3.01;99.53
80103;BME280;69865;47.648;19.030;2024-03-25T00:01:17;99471.22;;;3.04;100.00
80103;BME280;69865;47.648;19.030;2024-03-25T00:01:48;99468.63;;;3.04;100.00
80103;BME280;69865;47.648;19.030;2024-03-25T00:02:19;99465.41;;;3.00;99.91
80103;BME280;69865;47.648;19.030;2024-03-25T00:02:50;99473.00;;;3.03;99.86
80103;BME280;69865;47.648;19.030;2024-03-25T00:03:21;99470.38;;;3.03;99.68
80103;BME280;69865;47.648;19.030;2024-03-25T00:03:52;99462.72;;;3.02;99.76
80103;BME280;69865;47.648;19.030;2024-03-25T00:04:23;99466.03;;;3.04;99.71
80103;BME280;69865;47.648;19.030;2024-03-25T00:04:55;99472.16;;;3.03;100.00
80103;BME280;69865;47.648;19.030;2024-03-25T00:05:27;99471.34;;;3.02;100.00
80103;BME280;69865;47.648;19.030;2024-03-25T00:05:58;99474.97;;;3.00;100.00
80103;BME280;69865;47.648;19.030;2024-03-25T00:06:29;99464.69;;;2.98;99.66
80103;BME280;69865;47.648;19.030;2024-03-25T00:07:00;99467.28;;;2.98;100.00
80103;BME280;69865;47.648;19.030;2024-03-25T00:07:31;99471.66;;;2.98;100.00
80103;BME280;69865;47.648;19.030;2024-03-25T00:08:02;99471.66;;;2.98;100.00
80103;BME280;69865;47.648;19.030;2024-03-25T00:08:34;99462.81;;;3.00;99.82
80103;BME280;69865;47.648;19.030;2024-03-25T00:09:05;99468.94;;;2.99;100.00
80103;BME280;69865;47.648;19.030;2024-03-25T00:09:36;99469.91;;;2.98;99.86
80103;BME280;69865;47.648;19.030;2024-03-25T00:10:07;99470.81;;;2.97;99.87
80103;BME280;69865;47.648;19.030;2024-03-25T00:10:38;99467.50;;;2.95;99.60
80103;BME280;69865;47.648;19.030;2024-03-25T00:11:09;99468.31;;;2.96;99.71
80103;BME280;69865;47.648;19.030;2024-03-25T00:11:40;99464.06;;;2.95;100.00
80103;BME280;69865;47.648;19.030;2024-03-25T00:12:11;99467.41;;;2.97;100.00
80103;BME280;69865;47.648;19.030;2024-03-25T00:12:45;99463.94;;;2.96;100.00
80103;BME280;69865;47.648;19.030;2024-03-25T00:13:16;99466.47;;;2.98;99.78
80103;BME280;69865;47.648;19.030;2024-03-25T00:13:47;99462.91;;;2.99;99.48
80103;BME280;69865;47.648;19.030;2024-03-25T00:14:18;99465.63;;;2.97;100.00
80103;BME280;69865;47.648;19.030;2024-03-25T00:14:49;99466.47;;;2.98;99.61
80103;BME280;69865;47.648;19.030;2024-03-25T00:15:20;99464.69;;;2.98;99.50
80103;BME280;69865;47.648;19.030;2024-03-25T00:15:53;99459.06;;;2.92;99.92
80103;BME280;69865;47.648;19.030;2024-03-25T00:16:24;99465.22;;;2.91;99.87
80103;BME280;69865;47.648;19.030;2024-03-25T00:16:55;99465.22;;;2.91;100.00
80103;BME280;69865;47.648;19.030;2024-03-25T00:17:26;99464.28;;;2.92;100.00
80103;BME280;69865;47.648;19.030;2024-03-25T00:17:57;99459.06;;;2.92;99.74
80103;BME280;69865;47.648;19.030;2024-03-25T00:18:28;99462.41;;;2.94;99.49
80103;BME280;69865;47.648;19.030;2024-03-25T00:18:59;99458.84;;;2.95;99.61
80103;BME280;69865;47.648;19.030;2024-03-25T00:19:30;99462.50;;;2.92;100.00
80103;BME280;69865;47.648;19.030;2024-03-25T00:20:02;99464.19;;;2.93;99.98
80103;BME280;69865;47.648;19.030;2024-03-25T00:20:34;99466.66;;;2.95;99.58
80103;BME280;69865;47.648;19.030;2024-03-25T00:21:05;99465.09;;;2.92;99.59
80103;BME280;69865;47.648;19.030;2024-03-25T00:21:35;99459.81;;;2.94;100.00
80103;BME280;69865;47.648;19.030;2024-03-25T00:22:06;99461.56;;;2.93;99.91
80103;BME280;69865;47.648;19.030;2024-03-25T00:22:37;99461.78;;;2.90;99.74
80103;BME280;69865;47.648;19.030;2024-03-25T00:23:08;99467.09;;;2.89;99.72
80103;BME280;69865;47.648;19.030;2024-03-25T00:23:39;99460.66;;;2.94;99.97
80103;BME280;69865;47.648;19.030;2024-03-25T00:24:10;99460.44;;;2.97;99.52
80103;BME280;69865;47.648;19.030;2024-03-25T00:24:41;99460.44;;;2.97;99.07
80103;BME280;69865;47.648;19.030;2024-03-25T00:25:12;99463.88;;;2.98;99.09
80103;BME280;69865;47.648;19.030;2024-03-25T00:25:43;99459.69;;;2.95;99.39
80103;BME280;69865;47.648;19.030;2024-03-25T00:26:14;99460.53;;;2.96;99.17
80103;BME280;69865;47.648;19.030;2024-03-25T00:26:45;99460.66;;;2.94;99.24
80103;BME280;69865;47.648;19.030;2024-03-25T00:27:16;99462.72;;;2.89;100.00
80103;BME280;69865;47.648;19.030;2024-03-25T00:27:47;99459.38;;;2.87;99.93
80103;BME280;69865;47.648;19.030;2024-03-25T00:28:18;99461.78;;;2.90;99.80
80103;BME280;69865;47.648;19.030;2024-03-25T00:28:49;99454.31;;;2.86;99.95
80103;BME280;69865;47.648;19.030;2024-03-25T00:29:20;99463.78;;;2.87;100.00
80103;BME280;69865;47.648;19.030;2024-03-25T00:29:51;99461.97;;;2.87;100.00
80103;BME280;69865;47.648;19.030;2024-03-25T00:30:22;99462.81;;;2.88;99.80
80103;BME280;69865;47.648;19.030;2024-03-25T00:30:53;99460.13;;;2.89;99.92
80103;BME280;69865;47.648;19.030;2024-03-25T00:31:24;99457.44;;;2.91;99.67
80103;BME280;69865;47.648;19.030;2024-03-25T00:31:55;99461.66;;;2.92;99.45
80103;BME280;69865;47.648;19.030;2024-03-25T00:32:26;99459.91;;;2.92;99.78
80103;BME280;69865;47.648;19.030;2024-03-25T00:32:57;99461.78;;;2.90;99.37
80103;BME280;69865;47.648;19.030;2024-03-25T00:33:28;99466.88;;;2.92;99.12
80103;BME280;69865;47.648;19.030;2024-03-25T00:33:59;99452.53;;;2.86;99.33
80103;BME280;69865;47.648;19.030;2024-03-25T00:34:30;99469.59;;;2.90;99.18
80103;BME280;69865;47.648;19.030;2024-03-25T00:35:02;99460.13;;;2.89;99.65
80103;BME280;69865;47.648;19.030;2024-03-25T00:35:33;99460.97;;;2.90;99.54
80103;BME280;69865;47.648;19.030;2024-03-25T00:36:05;99467.72;;;2.92;99.40
80103;BME280;69865;47.648;19.030;2024-03-25T00:36:36;99464.19;;;2.93;99.49
80103;BME280;69865;47.648;19.030;2024-03-25T00:37:07;99452.31;;;2.89;99.58
80103;BME280;69865;47.648;19.030;2024-03-25T00:37:38;99460.84;;;2.91;99.26
80103;BME280;69865;47.648;19.030;2024-03-25T00:38:09;99460.13;;;2.89;99.35
80103;BME280;69865;47.648;19.030;2024-03-25T00:38:40;99467.94;;;2.89;99.65
80103;BME280;69865;47.648;19.030;2024-03-25T00:39:13;99456.69;;;2.89;99.73
80103;BME280;69865;47.648;19.030;2024-03-25T00:39:44;99458.34;;;2.90;99.17
80103;BME280;69865;47.648;19.030;2024-03-25T00:40:15;99459.28;;;2.89;99.52
80103;BME280;69865;47.648;19.030;2024-03-25T00:40:46;99459.28;;;2.89;99.21
80103;BME280;69865;47.648;19.030;2024-03-25T00:41:17;99460.13;;;2.89;99.34
80103;BME280;69865;47.648;19.030;2024-03-25T00:41:48;99459.38;;;2.87;99.36
80103;BME280;69865;47.648;19.030;2024-03-25T00:42:19;99453.56;;;2.83;99.74
80103;BME280;69865;47.648;19.030;2024-03-25T00:42:50;99456.91;;;2.86;99.66
80103;BME280;69865;47.648;19.030;2024-03-25T00:43:21;99453.47;;;2.85;99.55
80103;BME280;69865;47.648;19.030;2024-03-25T00:43:52;99449.09;;;2.86;99.93
80103;BME280;69865;47.648;19.030;2024-03-25T00:44:22;99455.34;;;2.83;99.73
80103;BME280;69865;47.648;19.030;2024-03-25T00:44:53;99451.94;;;2.82;99.57
80103;BME280;69865;47.648;19.030;2024-03-25T00:45:24;99456.47;;;2.79;99.66
80103;BME280;69865;47.648;19.030;2024-03-25T00:45:56;99457.22;;;2.81;100.00
80103;BME280;69865;47.648;19.030;2024-03-25T00:46:27;99448.59;;;2.80;99.83
80103;BME280;69865;47.648;19.030;2024-03-25T00:46:58;99452.13;;;2.79;99.70
80103;BME280;69865;47.648;19.030;2024-03-25T00:47:29;99452.13;;;2.79;99.46
80103;BME280;69865;47.648;19.030;2024-03-25T00:48:01;99448.06;;;2.75;99.59
80103;BME280;69865;47.648;19.030;2024-03-25T00:48:32;99448.59;;;2.80;99.96
80103;BME280;69865;47.648;19.030;2024-03-25T00:49:02;99447.66;;;2.81;99.44
80103;BME280;69865;47.648;19.030;2024-03-25T00:49:33;99453.56;;;2.83;99.59
80103;BME280;69865;47.648;19.030;2024-03-25T00:50:07;99454.31;;;2.86;99.17
80103;BME280;69865;47.648;19.030;2024-03-25T00:50:38;99447.03;;;2.91;99.29
80103;BME280;69865;47.648;19.030;2024-03-25T00:51:09;99449.72;;;2.89;99.25
80103;BME280;69865;47.648;19.030;2024-03-25T00:51:40;99452.22;;;2.91;99.05
80103;BME280;69865;47.648;19.030;2024-03-25T00:52:11;99457.22;;;2.94;98.77
80103;BME280;69865;47.648;19.030;2024-03-25T00:52:42;99450.84;;;2.98;98.59
80103;BME280;69865;47.648;19.030;2024-03-25T00:53:13;99449.81;;;3.00;98.54
80103;BME280;69865;47.648;19.030;2024-03-25T00:53:44;99450.03;;;2.97;98.73
80103;BME280;69865;47.648;19.030;2024-03-25T00:54:15;99457.09;;;2.95;98.60
80103;BME280;69865;47.648;19.030;2024-03-25T00:54:46;99456.06;;;2.98;98.52
80103;BME280;69865;47.648;19.030;2024-03-25T00:55:17;99450.53;;;3.02;98.83
80103;BME280;69865;47.648;19.030;2024-03-25T00:55:48;99453.75;;;3.06;98.51
80103;BME280;69865;47.648;19.030;2024-03-25T00:56:19;99451.88;;;3.08;97.98
80103;BME280;69865;47.648;19.030;2024-03-25T00:56:50;99449.16;;;3.09;97.79
80103;BME280;69865;47.648;19.030;2024-03-25T00:57:21;99453.53;;;3.09;98.09
80103;BME280;69865;47.648;19.030;2024-03-25T00:57:52;99450.94;;;3.09;98.03
80103;BME280;69865;47.648;19.030;2024-03-25T00:58:23;99446.44;;;3.11;97.55
80103;BME280;69865;47.648;19.030;2024-03-25T00:58:54;99451.44;;;3.14;97.63
80103;BME280;69865;47.648;19.030;2024-03-25T00:59:25;99444.97;;;3.19;96.80
80103;BME280;69865;47.648;19.030;2024-03-25T00:59:56;99454.44;;;3.20;97.01
80103;BME280;69865;47.648;19.030;2024-03-25T01:00:27;99450.78;;;3.23;96.50
80103;BME280;69865;47.648;19.030;2024-03-25T01:00:57;99448.53;;;3.18;97.24
80103;BME280;69865;47.648;19.030;2024-03-25T01:01:29;99447.78;;;3.16;97.13
80103;BME280;69865;47.648;19.030;2024-03-25T01:01:59;99450.16;;;3.19;97.58
80103;BME280;69865;47.648;19.030;2024-03-25T01:02:30;99442.38;;;3.19;97.19
80103;BME280;69865;47.648;19.030;2024-03-25T01:03:01;99448.31;;;3.21;96.93
80103;BME280;69865;47.648;19.030;2024-03-25T01:03:32;99447.38;;;3.22;96.49
80103;BME280;69865;47.648;19.030;2024-03-25T01:04:03;99453.19;;;3.26;96.40
80103;BME280;69865;47.648;19.030;2024-03-25T01:04:34;99438.28;;;3.28;96.34
80103;BME280;69865;47.648;19.030;2024-03-25T01:05:07;99440.06;;;3.27;96.58
80103;BME280;69865;47.648;19.030;2024-03-25T01:05:38;99443.59;;;3.26;96.17
80103;BME280;69865;47.648;19.030;2024-03-25T01:06:10;99446.31;;;3.25;96.60
80103;BME280;69865;47.648;19.030;2024-03-25T01:06:41;99445.16;;;3.29;95.99
80103;BME280;69865;47.648;19.030;2024-03-25T01:07:12;99446.81;;;3.30;96.49
80103;BME280;69865;47.648;19.030;2024-03-25T01:07:43;99434.75;;;3.29;96.50
80103;BME280;69865;47.648;19.030;2024-03-25T01:08:14;99440.66;;;3.31;96.20
80103;BME280;69865;47.648;19.030;2024-03-25T01:08:45;99433.09;;;3.28;96.23
80103;BME280;69865;47.648;19.030;2024-03-25T01:09:16;99442.66;;;3.27;96.52
80103;BME280;69865;47.648;19.030;2024-03-25T01:09:47;99434.00;;;3.27;96.29
80103;BME280;69865;47.648;19.030;2024-03-25T01:10:18;99444.66;;;3.24;96.38
80103;BME280;69865;47.648;19.030;2024-03-25T01:10:49;99444.66;;;3.24;96.48
80103;BME280;69865;47.648;19.030;2024-03-25T01:11:20;99443.50;;;3.28;96.09
80103;BME280;69865;47.648;19.030;2024-03-25T01:11:51;99439.97;;;3.29;95.54
80103;BME280;69865;47.648;19.030;2024-03-25T01:12:22;99451.53;;;3.25;95.96
80103;BME280;69865;47.648;19.030;2024-03-25T01:12:52;99448.31;;;3.21;96.23
80103;BME280;69865;47.648;19.030;2024-03-25T01:13:23;99448.53;;;3.18;96.71
80103;BME280;69865;47.648;19.030;2024-03-25T01:13:54;99449.34;;;3.19;96.83
80103;BME280;69865;47.648;19.030;2024-03-25T01:14:25;99443.94;;;3.22;96.10
80103;BME280;69865;47.648;19.030;2024-03-25T01:14:56;99449.97;;;3.22;96.46
80103;BME280;69865;47.648;19.030;2024-03-25T01:15:27;99443.94;;;3.22;96.46
80103;BME280;69865;47.648;19.030;2024-03-25T01:15:58;99437.06;;;3.21;96.22
80103;BME280;69865;47.648;19.030;2024-03-25T01:16:29;99444.97;;;3.19;96.58
80103;BME280;69865;47.648;19.030;2024-03-25T01:17:00;99445.69;;;3.21;96.28
80103;BME280;69865;47.648;19.030;2024-03-25T01:17:31;99442.38;;;3.19;96.02
80103;BME280;69865;47.648;19.030;2024-03-25T01:18:02;99441.66;;;3.17;96.14
80103;BME280;69865;47.648;19.030;2024-03-25T01:18:33;99443.09;;;3.21;96.21
80103;BME280;69865;47.648;19.030;2024-03-25T01:19:04;99447.47;;;3.21;96.38
80103;BME280;69865;47.648;19.030;2024-03-25T01:19:35;99433.72;;;3.19;95.99
80103;BME280;69865;47.648;19.030;2024-03-25T01:20:08;99451.63;;;3.23;95.43
80103;BME280;69865;47.648;19.030;2024-03-25T01:20:39;99442.97;;;3.23;95.68
80103;BME280;69865;47.648;19.030;2024-03-25T01:21:10;99447.97;;;3.26;95.80
80103;BME280;69865;47.648;19.030;2024-03-25T01:21:41;99448.69;;;3.28;95.25
80103;BME280;69865;47.648;19.030;2024-03-25T01:22:12;99438.28;;;3.28;95.66
80103;BME280;69865;47.648;19.030;2024-03-25T01:22:43;99443.50;;;3.28;94.90
80103;BME280;69865;47.648;19.030;2024-03-25T01:23:14;99438.06;;;3.31;94.85
80103;BME280;69865;47.648;19.030;2024-03-25T01:23:45;99450.47;;;3.27;95.79
80103;BME280;69865;47.648;19.030;2024-03-25T01:24:16;99438.28;;;3.28;95.50
80103;BME280;69865;47.648;19.030;2024-03-25T01:24:47;99447.97;;;3.26;95.19
80103;BME280;69865;47.648;19.030;2024-03-25T01:25:18;99441.72;;;3.28;95.10
80103;BME280;69865;47.648;19.030;2024-03-25T01:25:49;99438.19;;;3.29;94.88
80103;BME280;69865;47.648;19.030;2024-03-25T01:26:20;99448.38;;;3.33;94.90
80103;BME280;69865;47.648;19.030;2024-03-25T01:26:51;99430.09;;;3.21;94.68
80103;BME280;69865;47.648;19.030;2024-03-25T01:27:22;99444.00;;;3.33;95.17
80103;BME280;69865;47.648;19.030;2024-03-25T01:27:53;99444.84;;;3.34;94.75
80103;BME280;69865;47.648;19.030;2024-03-25T01:28:24;99438.56;;;3.36;95.19
80103;BME280;69865;47.648;19.030;2024-03-25T01:28:55;99436.91;;;3.35;94.54
80103;BME280;69865;47.648;19.030;2024-03-25T01:29:25;99436.81;;;3.37;94.71
80103;BME280;69865;47.648;19.030;2024-03-25T01:29:56;99438.56;;;3.36;94.65
80103;BME280;69865;47.648;19.030;2024-03-25T01:30:28;99429.31;;;3.32;94.68
80103;BME280;69865;47.648;19.030;2024-03-25T01:30:58;99432.97;;;3.29;94.77
80103;BME280;69865;47.648;19.030;2024-03-25T01:31:29;99435.97;;;3.36;95.23
80103;BME280;69865;47.648;19.030;2024-03-25T01:32:00;99432.31;;;3.39;94.22
80103;BME280;69865;47.648;19.030;2024-03-25T01:32:31;99437.63;;;3.37;94.30
80103;BME280;69865;47.648;19.030;2024-03-25T01:33:03;99436.72;;;3.38;94.35
80103;BME280;69865;47.648;19.030;2024-03-25T01:33:34;99429.09;;;3.35;93.89
80103;BME280;69865;47.648;19.030;2024-03-25T01:34:05;99436.81;;;3.37;94.58
80103;BME280;69865;47.648;19.030;2024-03-25T01:34:36;99432.31;;;3.39;93.76
80103;BME280;69865;47.648;19.030;2024-03-25T01:35:08;99431.59;;;3.37;93.58
80103;BME280;69865;47.648;19.030;2024-03-25T01:35:39;99433.44;;;3.47;94.07
80103;BME280;69865;47.648;19.030;2024-03-25T01:36:10;99428.50;;;3.55;93.17
80103;BME280;69865;47.648;19.030;2024-03-25T01:36:41;99434.16;;;3.49;93.30
80103;BME280;69865;47.648;19.030;2024-03-25T01:37:13;99428.44;;;3.44;93.93
80103;BME280;69865;47.648;19.030;2024-03-25T01:37:44;99438.75;;;3.46;93.76
80103;BME280;69865;47.648;19.030;2024-03-25T01:38:15;99431.88;;;3.45;93.83
80103;BME280;69865;47.648;19.030;2024-03-25T01:38:46;99429.97;;;3.47;93.62
80103;BME280;69865;47.648;19.030;2024-03-25T01:39:17;99432.59;;;3.47;93.86
80103;BME280;69865;47.648;19.030;2024-03-25T01:39:47;99438.63;;;3.47;93.64
80103;BME280;69865;47.648;19.030;2024-03-25T01:40:18;99434.59;;;3.43;94.79
80103;BME280;69865;47.648;19.030;2024-03-25T01:40:49;99430.13;;;3.45;94.36
80103;BME280;69865;47.648;19.030;2024-03-25T01:41:22;99437.78;;;3.47;94.16
80103;BME280;69865;47.648;19.030;2024-03-25T01:41:53;99430.44;;;3.41;94.55
80103;BME280;69865;47.648;19.030;2024-03-25T01:42:23;99435.31;;;3.45;94.08
80103;BME280;69865;47.648;19.030;2024-03-25T01:42:55;99425.00;;;3.44;94.03
80103;BME280;69865;47.648;19.030;2024-03-25T01:43:26;99427.50;;;3.45;94.04
80103;BME280;69865;47.648;19.030;2024-03-25T01:43:57;99435.41;;;3.44;94.13
80103;BME280;69865;47.648;19.030;2024-03-25T01:44:28;99433.56;;;3.46;93.90
80103;BME280;69865;47.648;19.030;2024-03-25T01:44:59;99426.97;;;3.53;93.73
80103;BME280;69865;47.648;19.030;2024-03-25T01:45:32;99422.91;;;3.49;93.26
80103;BME280;69865;47.648;19.030;2024-03-25T01:46:04;99424.72;;;3.59;93.29
80103;BME280;69865;47.648;19.030;2024-03-25T01:46:35;99425.56;;;3.60;92.30
80103;BME280;69865;47.648;19.030;2024-03-25T01:47:07;99426.41;;;3.60;92.91
80103;BME280;69865;47.648;19.030;2024-03-25T01:47:38;99424.84;;;3.58;93.16
80103;BME280;69865;47.648;19.030;2024-03-25T01:48:10;99430.25;;;3.55;93.48
80103;BME280;69865;47.648;19.030;2024-03-25T01:48:43;99421.75;;;3.53;93.07
80103;BME280;69865;47.648;19.030;2024-03-25T01:49:15;99415.72;;;3.52;93.17
80103;BME280;69865;47.648;19.030;2024-03-25T01:49:46;99424.97;;;3.56;93.08
80103;BME280;69865;47.648;19.030;2024-03-25T01:50:18;99417.06;;;3.58;92.93
80103;BME280;69865;47.648;19.030;2024-03-25T01:50:50;99418.81;;;3.57;93.33
80103;BME280;69865;47.648;19.030;2024-03-25T01:51:21;99426.31;;;3.62;92.79
80103;BME280;69865;47.648;19.030;2024-03-25T01:51:53;99425.47;;;3.61;92.45
80103;BME280;69865;47.648;19.030;2024-03-25T01:52:25;99416.25;;;3.68;92.01
80103;BME280;69865;47.648;19.030;2024-03-25T01:52:57;99417.31;;;3.66;92.67
80103;BME280;69865;47.648;19.030;2024-03-25T01:53:29;99422.72;;;3.63;93.23
80103;BME280;69865;47.648;19.030;2024-03-25T01:54:01;99423.00;;;3.71;92.07
80103;BME280;69865;47.648;19.030;2024-03-25T01:54:33;99422.16;;;3.70;92.23
80103;BME280;69865;47.648;19.030;2024-03-25T01:55:05;99413.94;;;3.76;92.00
80103;BME280;69865;47.648;19.030;2024-03-25T01:55:39;99414.44;;;3.82;91.45
80103;BME280;69865;47.648;19.030;2024-03-25T01:56:11;99421.06;;;3.86;91.10
80103;BME280;69865;47.648;19.030;2024-03-25T01:56:43;99418.47;;;3.86;90.98
80103;BME280;69865;47.648;19.030;2024-03-25T01:57:15;99420.34;;;3.84;91.56
80103;BME280;69865;47.648;19.030;2024-03-25T01:57:47;99416.28;;;3.79;91.82
80103;BME280;69865;47.648;19.030;2024-03-25T01:58:18;99420.47;;;3.82;91.45
80103;BME280;69865;47.648;19.030;2024-03-25T01:58:50;99419.84;;;3.78;91.94
80103;BME280;69865;47.648;19.030;2024-03-25T01:59:21;99423.28;;;3.79;91.64
80103;BME280;69865;47.648;19.030;2024-03-25T01:59:53;99432.75;;;3.80;91.50
80103;BME280;69865;47.648;19.030;2024-03-25T02:00:26;99423.88;;;3.83;91.49
80103;BME280;69865;47.648;19.030;2024-03-25T02:00:58;99419.50;;;3.83;90.84
80103;BME280;69865;47.648;19.030;2024-03-25T02:01:30;99422.84;;;3.85;91.48
80103;BME280;69865;47.648;19.030;2024-03-25T02:02:02;99422.84;;;3.85;90.67
80103;BME280;69865;47.648;19.030;2024-03-25T02:02:34;99419.41;;;3.85;91.19
80103;BME280;69865;47.648;19.030;2024-03-25T02:03:05;99422.94;;;3.84;91.43
80103;BME280;69865;47.648;19.030;2024-03-25T02:03:37;99422.09;;;3.83;91.45
80103;BME280;69865;47.648;19.030;2024-03-25T02:04:08;99424.72;;;3.83;90.70
80103;BME280;69865;47.648;19.030;2024-03-25T02:04:40;99420.56;;;3.81;91.86
80103;BME280;69865;47.648;19.030;2024-03-25T02:05:13;99415.97;;;3.84;91.17
80103;BME280;69865;47.648;19.030;2024-03-25T02:05:48;99412.66;;;3.82;90.84
80103;BME280;69865;47.648;19.030;2024-03-25T02:06:21;99417.03;;;3.82;91.18
80103;BME280;69865;47.648;19.030;2024-03-25T02:06:53;99420.06;;;3.75;91.90
80103;BME280;69865;47.648;19.030;2024-03-25T02:07:25;99417.38;;;3.77;91.59
80103;BME280;69865;47.648;19.030;2024-03-25T02:07:57;99416.44;;;3.78;92.40
80103;BME280;69865;47.648;19.030;2024-03-25T02:08:29;99416.44;;;3.78;91.46
80103;BME280;69865;47.648;19.030;2024-03-25T02:09:02;99414.44;;;3.82;91.16
80103;BME280;69865;47.648;19.030;2024-03-25T02:09:33;99417.97;;;3.81;91.98
80103;BME280;69865;47.648;19.030;2024-03-25T02:10:06;99416.63;;;3.75;91.50
80103;BME280;69865;47.648;19.030;2024-03-25T02:10:38;99413.09;;;3.76;92.02
80103;BME280;69865;47.648;19.030;2024-03-25T02:11:10;99418.31;;;3.76;91.62
80103;BME280;69865;47.648;19.030;2024-03-25T02:11:42;99415.00;;;3.74;91.51
80103;BME280;69865;47.648;19.030;2024-03-25T02:12:13;99408.13;;;3.73;91.93
80103;BME280;69865;47.648;19.030;2024-03-25T02:12:45;99411.56;;;3.73;91.66
80103;BME280;69865;47.648;19.030;2024-03-25T02:13:17;99417.59;;;3.74;91.80
80103;BME280;69865;47.648;19.030;2024-03-25T02:13:47;99425.41;;;3.74;91.91
80103;BME280;69865;47.648;19.030;2024-03-25T02:14:19;99422.81;;;3.74;91.63
80103;BME280;69865;47.648;19.030;2024-03-25T02:14:50;99412.84;;;3.79;91.58
80103;BME280;69865;47.648;19.030;2024-03-25T02:15:21;99420.47;;;3.82;91.32
80103;BME280;69865;47.648;19.030;2024-03-25T02:15:53;99416.28;;;3.79;90.99
80103;BME280;69865;47.648;19.030;2024-03-25T02:16:24;99417.03;;;3.82;91.39
80103;BME280;69865;47.648;19.030;2024-03-25T02:16:55;99418.66;;;3.83;91.76
80103;BME280;69865;47.648;19.030;2024-03-25T02:17:26;99416.78;;;3.85;91.17
80103;BME280;69865;47.648;19.030;2024-03-25T02:17:57;99419.41;;;3.85;91.38
80103;BME280;69865;47.648;19.030;2024-03-25T02:18:28;99419.31;;;3.86;90.86
80103;BME280;69865;47.648;19.030;2024-03-25T02:18:59;99429.59;;;3.88;91.27
80103;BME280;69865;47.648;19.030;2024-03-25T02:19:31;99423.53;;;3.87;91.85
80103;BME280;69865;47.648;19.030;2024-03-25T02:20:03;99433.59;;;3.81;91.70
80103;BME280;69865;47.648;19.030;2024-03-25T02:20:34;99430.25;;;3.78;92.20
80103;BME280;69865;47.648;19.030;2024-03-25T02:21:07;99423.28;;;3.79;91.51
80103;BME280;69865;47.648;19.030;2024-03-25T02:21:38;99422.81;;;3.74;91.49
80103;BME280;69865;47.648;19.030;2024-03-25T02:22:09;99429.66;;;3.75;92.38
80103;BME280;69865;47.648;19.030;2024-03-25T02:22:40;99427.03;;;3.75;91.90
80103;BME280;69865;47.648;19.030;2024-03-25T02:23:11;99431.41;;;3.74;92.58
80103;BME280;69865;47.648;19.030;2024-03-25T02:23:45;99422.44;;;3.78;92.16
80103;BME280;69865;47.648;19.030;2024-03-25T02:24:20;99429.66;;;3.75;92.21
80103;BME280;69865;47.648;19.030;2024-03-25T02:24:53;99432.16;;;3.76;92.85
80103;BME280;69865;47.648;19.030;2024-03-25T02:25:27;99424.56;;;3.73;92.47
80103;BME280;69865;47.648;19.030;2024-03-25T02:26:02;99432.16;;;3.76;92.37
80103;BME280;69865;47.648;19.030;2024-03-25T02:26:33;99431.22;;;3.77;91.91
80103;BME280;69865;47.648;19.030;2024-03-25T02:27:04;99424.00;;;3.81;91.87
80103;BME280;69865;47.648;19.030;2024-03-25T02:27:35;99422.25;;;3.82;92.10
80103;BME280;69865;47.648;19.030;2024-03-25T02:28:07;99427.22;;;3.85;91.67
80103;BME280;69865;47.648;19.030;2024-03-25T02:28:38;99427.56;;;3.80;92.66
80103;BME280;69865;47.648;19.030;2024-03-25T02:29:09;99427.31;;;3.83;92.30
80103;BME280;69865;47.648;19.030;2024-03-25T02:29:40;99429.59;;;3.88;92.00
80103;BME280;69865;47.648;19.030;2024-03-25T02:30:13;99430.53;;;3.87;91.66
80103;BME280;69865;47.648;19.030;2024-03-25T02:30:44;99432.94;;;3.90;91.57
80103;BME280;69865;47.648;19.030;2024-03-25T02:31:15;99426.03;;;3.89;92.31
80103;BME280;69865;47.648;19.030;2024-03-25T02:31:46;99425.31;;;3.87;91.54
80103;BME280;69865;47.648;19.030;2024-03-25T02:32:17;99429.59;;;3.88;91.74
80103;BME280;69865;47.648;19.030;2024-03-25T02:32:47;99431.00;;;3.81;92.75
80103;BME280;69865;47.648;19.030;2024-03-25T02:33:18;99427.44;;;3.82;91.91
80103;BME280;69865;47.648;19.030;2024-03-25T02:33:49;99428.97;;;3.84;92.23
80103;BME280;69865;47.648;19.030;2024-03-25T02:34:20;99425.44;;;3.85;91.89
80103;BME280;69865;47.648;19.030;2024-03-25T02:34:51;99423.78;;;3.84;92.05
80103;BME280;69865;47.648;19.030;2024-03-25T02:35:25;99415.88;;;3.86;91.64
80103;BME280;69865;47.648;19.030;2024-03-25T02:35:57;99420.94;;;3.87;91.77
80103;BME280;69865;47.648;19.030;2024-03-25T02:36:28;99424.16;;;3.91;91.60
80103;BME280;69865;47.648;19.030;2024-03-25T02:36:59;99421.53;;;3.91;91.03
80103;BME280;69865;47.648;19.030;2024-03-25T02:37:30;99418.09;;;3.90;91.49
80103;BME280;69865;47.648;19.030;2024-03-25T02:38:03;99418.72;;;3.94;91.12
80103;BME280;69865;47.648;19.030;2024-03-25T02:38:35;99418.50;;;3.97;90.68
80103;BME280;69865;47.648;19.030;2024-03-25T02:39:06;99419.53;;;3.94;90.82
80103;BME280;69865;47.648;19.030;2024-03-25T02:39:37;99423.81;;;3.95;91.49
80103;BME280;69865;47.648;19.030;2024-03-25T02:40:09;99423.09;;;3.93;91.54
80103;BME280;69865;47.648;19.030;2024-03-25T02:40:41;99412.69;;;3.93;91.71
80103;BME280;69865;47.648;19.030;2024-03-25T02:41:14;99416.94;;;3.94;91.02
80103;BME280;69865;47.648;19.030;2024-03-25T02:41:45;99418.50;;;3.97;90.53
80103;BME280;69865;47.648;19.030;2024-03-25T02:42:17;99420.28;;;3.96;90.82
80103;BME280;69865;47.648;19.030;2024-03-25T02:42:48;99421.81;;;3.99;91.18
80103;BME280;69865;47.648;19.030;2024-03-25T02:43:20;99419.19;;;3.99;90.49
80103;BME280;69865;47.648;19.030;2024-03-25T02:43:51;99419.34;;;3.97;90.68
80103;BME280;69865;47.648;19.030;2024-03-25T02:44:23;99414.22;;;3.96;90.51
80103;BME280;69865;47.648;19.030;2024-03-25T02:44:55;99420.28;;;3.96;90.59
80103;BME280;69865;47.648;19.030;2024-03-25T02:45:26;99416.00;;;3.95;90.76
80103;BME280;69865;47.648;19.030;2024-03-25T02:45:57;99422.97;;;3.95;90.99